高雄國際航空站 - 塔台/地面席

METAR RCKH 201900Z 07003KT 6000 FEW015 SCT035 BKN050 24/20 Q1012 NOSIG RMK A2990=

站台狀態:Online
最後更新:2019-10-21 03:30:02